Time;durP1;ratioP1;P1;durP2;ratioP2;P2;SDS_P1;SDS_P2;PMS_P1;PMS_P2;Temp;Humidity;BMP_temperature;BMP_pressure;BME280_temperature;BME280_humidity;BME280_pressure;Samples;Min_cycle;Max_cycle;Signal;HPM_P1;HPM_P2
2022/10/06 00:01:16;;;;;;;9.32;1.17;;;14.80;99.90;;;;;;5118377;28;20035;-73
2022/10/06 00:03:43;;;;;;;8.77;1.08;;;14.90;99.90;;;;;;5119598;28;20046;-74
2022/10/06 00:06:11;;;;;;;10.93;1.40;;;14.90;99.90;;;;;;5119398;28;20479;-74
2022/10/06 00:08:39;;;;;;;7.90;1.13;;;14.90;99.90;;;;;;5119563;28;20036;-73
2022/10/06 00:11:06;;;;;;;9.70;0.93;;;14.80;99.90;;;;;;5119250;28;20050;-73
2022/10/06 00:13:33;;;;;;;7.20;0.80;;;14.80;99.90;;;;;;5117768;28;20064;-74
2022/10/06 00:15:59;;;;;;;15.48;1.45;;;14.80;99.90;;;;;;5119440;28;20066;-74
2022/10/06 00:18:26;;;;;;;9.45;1.65;;;14.80;99.90;;;;;;5119015;28;20425;-74
2022/10/06 00:20:56;;;;;;;13.27;1.05;;;14.80;99.90;;;;;;5118417;28;20322;-73
2022/10/06 00:23:22;;;;;;;9.18;1.10;;;14.90;99.90;;;;;;5119242;28;20078;-74
2022/10/06 00:25:48;;;;;;;5.93;1.05;;;14.90;99.90;;;;;;5119302;28;20039;-73
2022/10/06 00:28:14;;;;;;;12.07;1.50;;;14.90;99.90;;;;;;5119166;28;20031;-73
2022/10/06 00:30:40;;;;;;;9.25;1.27;;;14.90;99.90;;;;;;5119160;28;20458;-74
2022/10/06 00:33:05;;;;;;;10.93;1.33;;;14.90;99.90;;;;;;5119081;28;20049;-74
2022/10/06 00:35:33;;;;;;;14.30;1.83;;;14.70;99.90;;;;;;5119055;28;20443;-74
2022/10/06 00:38:03;;;;;;;11.55;1.30;;;14.60;99.90;;;;;;5118989;28;20097;-73
2022/10/06 00:40:30;;;;;;;13.60;1.70;;;14.60;99.90;;;;;;5118968;28;20337;-74
2022/10/06 00:43:04;;;;;;;6.65;1.15;;;14.50;99.90;;;;;;5117012;28;20051;-73
2022/10/06 00:45:47;;;;;;;9.75;1.65;;;14.40;99.90;;;;;;5118879;28;20046;-73
2022/10/06 00:48:20;;;;;;;15.65;1.50;;;14.40;99.90;;;;;;5118869;28;20373;-73
2022/10/06 00:50:46;;;;;;;19.85;1.88;;;14.40;99.90;;;;;;5118753;28;20048;-73
2022/10/06 00:53:13;;;;;;;14.93;1.30;;;14.40;99.90;;;;;;5118715;28;20043;-73
2022/10/06 00:55:39;;;;;;;9.95;1.38;;;14.50;99.90;;;;;;5118642;28;20051;-73
2022/10/06 00:58:06;;;;;;;16.45;1.95;;;14.50;99.90;;;;;;5118568;28;20043;-73
2022/10/06 01:00:32;;;;;;;5.97;1.10;;;14.50;99.90;;;;;;5117514;28;20329;-73
2022/10/06 01:03:26;;;;;;;9.07;1.20;;;14.50;99.90;;;;;;5118417;28;20051;-73
2022/10/06 01:05:53;;;;;;;13.90;1.75;;;14.30;99.90;;;;;;5111991;28;20340;-73
2022/10/06 01:08:21;;;;;;;15.43;1.50;;;14.20;99.90;;;;;;5117316;28;20497;-73
2022/10/06 01:10:47;;;;;;;16.10;1.40;;;14.10;99.90;;;;;;5118377;27;20036;-73
2022/10/06 01:13:14;;;;;;;8.77;1.20;;;14.00;99.90;;;;;;5117585;28;20043;-73
2022/10/06 01:15:45;;;;;;;13.45;1.63;;;14.00;99.90;;;;;;5118272;28;20048;-74
2022/10/06 01:18:13;;;;;;;10.77;1.35;;;14.10;99.90;;;;;;5118276;28;20039;-74
2022/10/06 01:20:48;;;;;;;15.65;1.90;;;14.10;99.90;;;;;;5118179;28;20101;-74
2022/10/06 01:23:14;;;;;;;13.52;1.77;;;14.20;99.90;;;;;;5118069;28;20040;-73
2022/10/06 01:25:40;;;;;;;10.68;1.27;;;14.20;99.90;;;;;;5118014;28;20074;-73
2022/10/06 01:28:07;;;;;;;12.65;1.48;;;14.10;99.90;;;;;;5117997;28;20067;-73
2022/10/06 01:30:49;;;;;;;13.73;1.52;;;14.10;99.90;;;;;;5116664;28;20493;-73
2022/10/06 01:33:16;;;;;;;15.07;1.92;;;14.10;99.90;;;;;;5117980;28;20076;-74
2022/10/06 01:35:47;;;;;;;12.82;2.03;;;14.20;99.90;;;;;;5099907;28;20051;-74
2022/10/06 01:38:13;;;;;;;14.05;1.30;;;14.10;99.90;;;;;;5117800;28;20383;-74
2022/10/06 01:40:39;;;;;;;14.70;1.95;;;14.00;99.90;;;;;;5116265;28;20043;-73
2022/10/06 01:43:04;;;;;;;13.73;1.40;;;14.00;99.90;;;;;;5115960;28;20059;-73
2022/10/06 01:45:30;;;;;;;12.25;1.48;;;14.10;99.90;;;;;;5117713;28;20040;-74
2022/10/06 01:47:56;;;;;;;13.70;1.05;;;14.10;99.90;;;;;;5117648;28;20306;-74
2022/10/06 01:50:22;;;;;;;13.63;1.40;;;13.90;99.90;;;;;;5117665;28;20032;-73
2022/10/06 01:52:48;;;;;;;11.70;1.40;;;14.00;99.90;;;;;;5117609;28;20187;-73
2022/10/06 01:55:14;;;;;;;8.27;1.48;;;14.20;99.90;;;;;;5117631;28;20076;-73
2022/10/06 01:57:42;;;;;;;13.27;1.92;;;14.20;99.90;;;;;;5099264;28;20096;-73
2022/10/06 02:00:10;;;;;;;10.55;1.48;;;14.20;99.90;;;;;;5117505;28;20122;-73
2022/10/06 02:02:36;;;;;;;19.40;1.88;;;14.20;99.90;;;;;;5117111;28;20049;-73
2022/10/06 02:05:03;;;;;;;8.05;1.10;;;14.10;99.90;;;;;;5117456;28;20036;-73
2022/10/06 02:07:28;;;;;;;10.95;1.20;;;14.00;99.90;;;;;;5117469;28;20066;-73
2022/10/06 02:09:54;;;;;;;14.27;1.60;;;14.00;99.90;;;;;;5117352;28;20081;-74
2022/10/06 02:12:20;;;;;;;9.98;1.67;;;13.80;99.90;;;;;;5116966;28;20039;-74
2022/10/06 02:14:45;;;;;;;9.98;1.52;;;13.60;99.90;;;;;;5117065;28;20505;-74
2022/10/06 02:17:11;;;;;;;16.08;1.70;;;13.80;99.90;;;;;;5116020;28;20047;-74
2022/10/06 02:19:37;;;;;;;13.27;1.50;;;13.70;99.90;;;;;;5116057;28;20039;-73
2022/10/06 02:22:03;;;;;;;14.02;1.60;;;13.60;99.90;;;;;;5116232;28;20432;-73
2022/10/06 02:24:29;;;;;;;11.52;1.50;;;13.70;99.90;;;;;;5117196;28;20043;-73
2022/10/06 02:26:54;;;;;;;12.27;1.40;;;13.80;99.90;;;;;;5117271;28;20036;-73
2022/10/06 02:29:20;;;;;;;13.98;1.55;;;13.80;99.90;;;;;;5117123;28;20031;-74
2022/10/06 02:31:48;;;;;;;9.05;1.23;;;13.80;99.90;;;;;;5117172;28;20040;-74
2022/10/06 02:34:14;;;;;;;12.05;1.48;;;13.90;99.80;;;;;;5116889;28;20043;-74
2022/10/06 02:36:39;;;;;;;14.98;2.00;;;13.90;99.80;;;;;;5117142;28;20046;-74
2022/10/06 02:39:05;;;;;;;16.15;1.40;;;14.00;99.70;;;;;;5116818;28;20043;-74
2022/10/06 02:41:31;;;;;;;10.10;1.30;;;14.00;99.40;;;;;;5116777;28;20055;-73
2022/10/06 02:43:57;;;;;;;18.75;1.92;;;13.90;99.60;;;;;;5118701;28;20092;-73
2022/10/06 02:46:23;;;;;;;8.52;1.50;;;13.80;99.60;;;;;;5119862;28;20051;-73
2022/10/06 02:48:50;;;;;;;9.55;1.50;;;13.70;99.60;;;;;;5119872;28;20333;-73
2022/10/06 02:51:17;;;;;;;7.85;1.42;;;13.70;99.70;;;;;;5121083;28;20047;-73
2022/10/06 02:53:46;;;;;;;6.05;1.40;;;13.70;99.70;;;;;;5119966;28;20447;-73
2022/10/06 02:56:20;;;;;;;12.85;1.40;;;13.70;99.70;;;;;;5121000;28;20055;-74
2022/10/06 02:58:48;;;;;;;13.50;1.52;;;13.90;99.70;;;;;;5120963;27;20088;-73
2022/10/06 03:01:22;;;;;;;8.95;1.58;;;13.90;99.60;;;;;;5120904;28;20376;-74
2022/10/06 03:03:49;;;;;;;12.02;1.65;;;14.00;99.60;;;;;;5120431;28;20430;-73
2022/10/06 03:06:26;;;;;;;16.35;1.83;;;13.90;99.40;;;;;;5120511;28;20440;-73
2022/10/06 03:09:06;;;;;;;12.27;1.13;;;13.90;99.50;;;;;;5120749;27;20201;-73
2022/10/06 03:11:34;;;;;;;6.28;1.08;;;13.80;99.40;;;;;;5120776;28;20038;-73
2022/10/06 03:14:00;;;;;;;8.35;1.58;;;13.70;99.60;;;;;;5120120;28;20051;-74
2022/10/06 03:16:38;;;;;;;13.95;1.23;;;13.70;99.70;;;;;;5119326;28;20047;-73
2022/10/06 03:19:05;;;;;;;16.65;1.50;;;13.70;99.50;;;;;;5120590;27;20051;-73
2022/10/06 03:21:33;;;;;;;15.25;1.23;;;13.60;99.60;;;;;;5120518;28;20298;-74
2022/10/06 03:24:00;;;;;;;12.82;1.60;;;13.70;99.60;;;;;;5119390;28;20043;-73
2022/10/06 03:26:28;;;;;;;12.77;1.42;;;13.70;99.60;;;;;;5120440;28;20416;-73
2022/10/06 03:28:55;;;;;;;9.20;1.10;;;13.70;99.50;;;;;;5119004;28;20071;-73
2022/10/06 03:31:21;;;;;;;10.02;1.98;;;13.60;99.60;;;;;;5120366;28;20028;-74
2022/10/06 03:33:46;;;;;;;8.60;1.33;;;13.60;99.70;;;;;;5119326;28;20036;-74
2022/10/06 03:36:16;;;;;;;12.52;1.45;;;13.70;99.70;;;;;;5118897;28;20058;-73
2022/10/06 03:38:42;;;;;;;11.07;1.60;;;13.70;99.60;;;;;;5118873;28;20044;-73
2022/10/06 03:41:19;;;;;;;16.27;1.60;;;13.70;99.80;;;;;;5119848;28;20079;-74
2022/10/06 03:43:46;;;;;;;8.18;1.48;;;13.70;99.60;;;;;;5119662;28;20040;-73
2022/10/06 03:46:15;;;;;;;8.98;1.10;;;13.70;99.70;;;;;;5120024;28;20038;-73
2022/10/06 03:48:41;;;;;;;16.50;1.40;;;13.70;99.70;;;;;;5119977;27;20038;-73
2022/10/06 03:51:11;;;;;;;11.00;1.42;;;13.70;99.60;;;;;;5118944;28;20032;-73
2022/10/06 03:53:37;;;;;;;12.73;1.35;;;13.60;99.70;;;;;;5119906;28;20310;-73
2022/10/06 03:56:10;;;;;;;10.45;1.30;;;13.50;99.80;;;;;;5117147;28;20108;-74
2022/10/06 03:58:38;;;;;;;12.98;1.67;;;13.50;99.80;;;;;;5101500;28;20122;-73
2022/10/06 04:01:07;;;;;;;9.25;1.20;;;13.60;99.80;;;;;;5119748;28;20047;-73
2022/10/06 04:03:33;;;;;;;11.85;1.63;;;13.70;99.80;;;;;;5118379;28;20044;-73
2022/10/06 04:06:02;;;;;;;13.82;1.58;;;13.70;99.80;;;;;;5119628;28;20030;-74
2022/10/06 04:08:29;;;;;;;8.30;1.33;;;13.70;99.80;;;;;;5119615;28;20118;-73
2022/10/06 04:10:54;;;;;;;9.50;1.02;;;13.80;99.80;;;;;;5118254;28;20097;-73
2022/10/06 04:13:21;;;;;;;12.23;1.35;;;13.70;99.60;;;;;;5119101;28;20039;-74
2022/10/06 04:15:47;;;;;;;15.40;1.92;;;13.70;99.60;;;;;;5118817;28;20047;-74
2022/10/06 04:18:16;;;;;;;13.25;1.08;;;13.70;99.60;;;;;;5119441;28;20047;-74
2022/10/06 04:20:41;;;;;;;12.23;1.48;;;13.60;99.60;;;;;;5118029;28;20424;-74
2022/10/06 04:23:08;;;;;;;9.35;1.55;;;13.70;99.50;;;;;;5118976;28;20040;-73
2022/10/06 04:25:34;;;;;;;12.30;1.40;;;13.70;99.50;;;;;;5118167;28;20447;-73
2022/10/06 04:27:59;;;;;;;10.15;1.40;;;13.70;99.30;;;;;;5119209;28;20031;-73
2022/10/06 04:30:25;;;;;;;10.00;1.52;;;13.60;99.50;;;;;;5119207;28;20039;-73
2022/10/06 04:32:52;;;;;;;13.70;2.15;;;13.50;99.60;;;;;;5117553;28;20043;-74
2022/10/06 04:35:18;;;;;;;11.55;1.50;;;13.40;99.50;;;;;;5118825;28;20032;-74
2022/10/06 04:37:45;;;;;;;9.85;1.33;;;13.40;99.60;;;;;;5118962;28;20043;-73
2022/10/06 04:40:10;;;;;;;13.93;1.40;;;13.30;99.70;;;;;;5117670;28;20363;-73
2022/10/06 04:42:36;;;;;;;8.02;1.23;;;13.40;99.60;;;;;;5117703;28;20059;-73
2022/10/06 04:45:03;;;;;;;17.80;1.60;;;13.30;99.60;;;;;;5118652;28;20044;-73
2022/10/06 04:47:28;;;;;;;8.45;1.40;;;13.40;99.50;;;;;;5118683;28;20355;-74
2022/10/06 04:49:54;;;;;;;13.55;1.70;;;13.40;99.60;;;;;;5118483;28;20097;-73
2022/10/06 04:52:21;;;;;;;9.60;1.30;;;13.40;99.60;;;;;;5118501;28;20040;-73
2022/10/06 04:54:47;;;;;;;10.68;1.65;;;13.30;99.50;;;;;;5118654;28;20088;-73
2022/10/06 04:57:12;;;;;;;16.15;1.58;;;13.30;99.50;;;;;;5118665;28;20119;-73
2022/10/06 05:02:22;;;;;;;11.82;1.35;;;13.20;99.60;;;;;;5118541;28;20086;-73
2022/10/06 05:04:48;;;;;;;11.27;1.13;;;13.30;99.60;;;;;;5118356;28;20075;-73
2022/10/06 05:07:13;;;;;;;9.30;1.67;;;13.30;99.60;;;;;;5117047;28;20047;-73
2022/10/06 05:09:39;;;;;;;10.40;1.52;;;13.10;99.60;;;;;;5118368;28;20032;-73
2022/10/06 05:12:05;;;;;;;7.97;1.20;;;13.10;99.70;;;;;;5117398;28;20047;-73
2022/10/06 05:14:32;;;;;;;10.32;1.75;;;13.10;99.70;;;;;;5117627;28;20035;-73
2022/10/06 05:16:58;;;;;;;9.63;1.45;;;13.00;99.70;;;;;;5118231;28;20043;-74
2022/10/06 05:19:24;;;;;;;10.63;1.40;;;13.10;99.80;;;;;;5117909;28;20383;-74
2022/10/06 05:21:49;;;;;;;11.57;1.30;;;13.00;99.80;;;;;;5118159;28;20043;-74
2022/10/06 05:24:16;;;;;;;12.07;1.83;;;13.00;99.60;;;;;;5116746;28;20134;-73
2022/10/06 05:26:42;;;;;;;14.60;1.48;;;12.90;99.90;;;;;;5116988;28;20050;-73
2022/10/06 05:29:07;;;;;;;11.95;1.60;;;12.90;99.90;;;;;;5118009;28;20118;-73
2022/10/06 05:31:37;;;;;;;11.68;1.80;;;13.10;99.90;;;;;;5117943;28;20122;-73
2022/10/06 05:34:03;;;;;;;11.50;1.75;;;13.00;99.80;;;;;;5117665;28;20039;-73
2022/10/06 05:36:32;;;;;;;9.32;1.40;;;13.10;99.90;;;;;;5117913;28;20039;-74
2022/10/06 05:38:59;;;;;;;15.35;1.88;;;13.10;99.80;;;;;;5117719;28;20040;-73
2022/10/06 05:41:32;;;;;;;10.85;1.80;;;13.10;99.80;;;;;;5117579;28;20048;-73
2022/10/06 05:43:59;;;;;;;12.63;1.52;;;13.20;99.70;;;;;;5117368;28;20071;-73
2022/10/06 05:46:27;;;;;;;17.00;1.58;;;13.00;99.70;;;;;;5117736;28;20040;-73
2022/10/06 05:48:55;;;;;;;16.38;1.70;;;12.90;99.80;;;;;;5117680;27;20036;-73
2022/10/06 05:51:22;;;;;;;13.05;1.42;;;12.90;99.80;;;;;;5116340;28;20118;-73
2022/10/06 05:53:48;;;;;;;12.70;1.70;;;12.80;99.80;;;;;;5116306;28;20421;-73
2022/10/06 05:56:16;;;;;;;11.50;1.23;;;12.70;99.90;;;;;;5116508;28;20051;-73
2022/10/06 05:58:44;;;;;;;11.30;1.88;;;12.70;99.90;;;;;;5117516;28;20398;-73
2022/10/06 06:01:22;;;;;;;14.05;1.30;;;12.80;99.90;;;;;;5116195;28;20043;-73
2022/10/06 06:03:53;;;;;;;23.58;1.83;;;12.80;99.90;;;;;;5117369;28;20075;-73
2022/10/06 06:06:26;;;;;;;18.27;1.90;;;12.80;99.90;;;;;;5117483;28;20036;-74
2022/10/06 06:09:01;;;;;;;22.17;2.50;;;12.80;99.90;;;;;;5117230;28;20431;-73
2022/10/06 06:11:30;;;;;;;11.15;1.90;;;12.90;99.90;;;;;;5117252;28;20075;-73
2022/10/06 06:14:06;;;;;;;12.07;1.58;;;12.90;99.90;;;;;;5116958;28;20035;-73
2022/10/06 06:16:33;;;;;;;16.58;1.63;;;13.10;99.90;;;;;;5116044;28;20436;-74
2022/10/06 06:18:59;;;;;;;14.63;1.48;;;13.10;99.90;;;;;;5116234;28;20117;-73
2022/10/06 06:21:26;;;;;;;9.73;1.50;;;13.20;99.90;;;;;;5117189;28;20047;-73
2022/10/06 06:23:52;;;;;;;15.77;1.90;;;13.20;99.90;;;;;;5117211;28;20043;-73
2022/10/06 06:26:24;;;;;;;12.00;1.48;;;13.20;99.90;;;;;;5117277;28;20032;-73
2022/10/06 06:28:55;;;;;;;14.73;1.70;;;13.30;99.90;;;;;;5117175;28;20070;-74
2022/10/06 06:31:26;;;;;;;11.38;1.60;;;13.30;99.90;;;;;;5116307;28;20053;-73
2022/10/06 06:33:57;;;;;;;11.40;1.73;;;13.30;99.90;;;;;;5116880;28;20417;-73
2022/10/06 06:36:35;;;;;;;14.65;1.75;;;13.30;99.90;;;;;;5117057;28;20066;-73
2022/10/06 06:39:03;;;;;;;12.25;1.70;;;13.30;99.90;;;;;;5117179;28;20042;-73
2022/10/06 06:41:32;;;;;;;17.10;1.65;;;13.30;99.90;;;;;;5116846;28;20087;-72
2022/10/06 06:44:00;;;;;;;11.63;1.50;;;13.40;99.90;;;;;;5149815;27;20071;-71
2022/10/06 06:46:30;;;;;;;19.67;1.60;;;13.40;99.90;;;;;;5118051;28;20113;-71
2022/10/06 06:48:58;;;;;;;10.65;1.30;;;13.30;99.90;;;;;;5115961;28;20035;-70
2022/10/06 06:51:24;;;;;;;13.80;1.40;;;13.30;99.90;;;;;;5116950;28;20122;-70
2022/10/06 06:53:51;;;;;;;12.63;1.48;;;13.40;99.90;;;;;;5116572;28;20122;-72
2022/10/06 06:56:17;;;;;;;16.10;1.33;;;13.40;99.90;;;;;;5116968;28;20097;-71
2022/10/06 06:58:47;;;;;;;14.75;1.92;;;13.40;99.90;;;;;;5116645;28;20048;-69
2022/10/06 07:01:18;;;;;;;11.57;1.73;;;13.40;99.90;;;;;;5116948;28;20329;-69
2022/10/06 07:03:50;;;;;;;10.95;1.90;;;13.40;99.90;;;;;;5116786;28;20047;-69
2022/10/06 07:06:16;;;;;;;12.25;1.58;;;13.50;99.90;;;;;;5116892;28;20044;-69
2022/10/06 07:08:46;;;;;;;16.95;1.88;;;13.60;99.90;;;;;;5116832;28;20035;-69
2022/10/06 07:11:24;;;;;;;16.88;2.17;;;13.70;99.90;;;;;;5116815;28;20039;-69
2022/10/06 07:13:52;;;;;;;25.30;2.25;;;13.60;99.90;;;;;;5116366;28;20042;-69
2022/10/06 07:27:27;;;;;;;11.90;1.40;;;13.60;99.90;;;;;;5116611;28;20046;-69
2022/10/06 07:29:55;;;;;;;13.05;1.63;;;13.60;99.90;;;;;;5118404;28;20139;-69
2022/10/06 07:32:22;;;;;;;16.85;1.92;;;13.70;99.90;;;;;;5120371;28;20382;-70
2022/10/06 07:34:48;;;;;;;11.13;1.48;;;13.70;99.90;;;;;;5119302;28;20035;-69
2022/10/06 07:37:15;;;;;;;16.05;1.88;;;13.70;99.90;;;;;;5119201;28;20109;-68
2022/10/06 07:39:41;;;;;;;20.15;2.60;;;13.80;99.90;;;;;;5119914;28;20039;-69
2022/10/06 07:42:14;;;;;;;9.52;1.65;;;13.90;99.90;;;;;;5119812;28;20065;-69
2022/10/06 07:45:36;;;;;;;17.23;1.35;;;14.00;99.90;;;;;;5119672;28;20078;-69
2022/10/06 07:47:30;;;;;;;18.05;1.73;;;14.00;99.90;;;;;;5119647;28;20043;-70
2022/10/06 07:49:57;;;;;;;10.73;1.35;;;14.10;99.90;;;;;;5119699;28;20051;-69
2022/10/06 07:52:24;;;;;;;16.00;2.03;;;14.10;99.90;;;;;;5120010;28;20043;-69
2022/10/06 07:54:49;;;;;;;14.25;1.90;;;14.10;99.90;;;;;;5119714;28;20051;-69
2022/10/06 07:57:15;;;;;;;14.38;1.35;;;14.10;99.90;;;;;;5119871;28;20324;-69
2022/10/06 07:59:41;;;;;;;19.50;2.17;;;14.20;99.90;;;;;;5119822;28;20036;-70
2022/10/06 08:02:06;;;;;;;15.20;1.70;;;14.30;99.90;;;;;;5120266;28;20039;-69
2022/10/06 08:04:32;;;;;;;14.23;1.50;;;14.20;99.90;;;;;;5120393;28;20044;-68
2022/10/06 08:06:59;;;;;;;12.15;1.65;;;14.20;99.90;;;;;;5119455;28;20069;-69
2022/10/06 08:09:24;;;;;;;11.30;1.50;;;14.30;99.90;;;;;;5119570;28;20032;-68
2022/10/06 08:11:51;;;;;;;14.32;2.10;;;14.30;99.90;;;;;;5119541;28;20046;-69
2022/10/06 08:14:17;;;;;;;18.92;1.95;;;14.50;99.90;;;;;;5118864;28;20440;-69
2022/10/06 08:16:43;;;;;;;14.05;1.80;;;14.50;99.80;;;;;;5119134;28;20047;-69
2022/10/06 08:19:10;;;;;;;13.30;2.25;;;14.60;99.80;;;;;;5119083;28;20043;-69
2022/10/06 08:21:38;;;;;;;16.00;1.67;;;14.60;99.60;;;;;;5119417;28;20122;-69
2022/10/06 08:24:04;;;;;;;16.02;1.90;;;14.50;99.80;;;;;;5118268;28;20329;-67
2022/10/06 08:26:32;;;;;;;10.68;1.23;;;14.60;99.60;;;;;;5119178;27;20031;-69
2022/10/06 08:29:01;;;;;;;12.70;1.80;;;14.60;99.70;;;;;;5119231;28;20031;-69
2022/10/06 08:31:28;;;;;;;13.70;1.50;;;14.70;99.80;;;;;;5119197;28;20032;-69
2022/10/06 08:33:56;;;;;;;17.55;2.15;;;14.90;99.80;;;;;;5119143;28;20044;-69
2022/10/06 08:36:23;;;;;;;15.40;1.63;;;15.00;99.60;;;;;;5118106;28;20333;-69
2022/10/06 08:38:49;;;;;;;15.07;1.63;;;15.00;99.60;;;;;;5119042;28;20359;-69
2022/10/06 08:41:17;;;;;;;12.68;1.40;;;15.00;99.50;;;;;;5117904;28;20055;-68
2022/10/06 08:43:50;;;;;;;14.30;1.30;;;14.90;99.40;;;;;;5118159;28;20083;-70
2022/10/06 08:46:18;;;;;;;15.35;1.63;;;14.90;99.50;;;;;;5118963;28;20043;-69
2022/10/06 08:48:44;;;;;;;14.05;1.42;;;15.00;99.30;;;;;;5118884;28;20309;-70
2022/10/06 08:51:28;;;;;;;13.73;1.50;;;15.10;99.30;;;;;;5118817;28;20141;-70
2022/10/06 08:54:13;;;;;;;16.42;2.10;;;15.20;99.00;;;;;;5118407;28;20050;-70
2022/10/06 08:57:10;;;;;;;14.30;1.63;;;15.10;98.90;;;;;;5118402;28;20482;-70
2022/10/06 08:59:36;;;;;;;12.82;1.58;;;15.20;98.40;;;;;;5101250;28;20051;-69
2022/10/06 09:02:14;;;;;;;13.27;1.60;;;15.00;98.30;;;;;;5118591;28;20035;-68
2022/10/06 09:04:40;;;;;;;15.65;1.67;;;14.90;98.10;;;;;;5118251;28;20039;-71
2022/10/06 09:07:14;;;;;;;11.05;1.75;;;14.90;98.50;;;;;;5118442;28;20039;-71
2022/10/06 09:10:09;;;;;;;13.20;1.77;;;15.10;98.30;;;;;;5117149;28;20071;-70
2022/10/06 09:13:05;;;;;;;14.77;1.63;;;15.20;98.00;;;;;;5118442;28;20310;-70
2022/10/06 09:15:45;;;;;;;18.00;1.77;;;15.20;98.20;;;;;;5118097;28;20035;-69
2022/10/06 09:18:21;;;;;;;14.80;1.58;;;15.20;98.30;;;;;;5118452;27;20417;-69
2022/10/06 09:20:52;;;;;;;11.63;1.50;;;15.30;98.30;;;;;;5117871;28;20042;-69
2022/10/06 09:26:07;;;;;;;11.20;1.40;;;15.40;98.00;;;;;;5118125;28;20050;-69
2022/10/06 09:28:33;;;;;;;9.48;1.08;;;15.30;97.80;;;;;;5117763;28;20096;-69
2022/10/06 09:31:02;;;;;;;13.82;2.67;;;15.30;97.50;;;;;;5117922;28;20040;-69
2022/10/06 09:33:37;;;;;;;7.85;1.02;;;15.30;97.30;;;;;;5117995;28;20035;-69
2022/10/06 09:36:08;;;;;;;17.70;1.73;;;15.30;97.40;;;;;;5118076;28;20043;-71
2022/10/06 09:38:53;;;;;;;9.70;1.40;;;15.40;97.50;;;;;;5117874;28;20035;-70
2022/10/06 09:41:22;;;;;;;9.68;1.27;;;15.50;97.30;;;;;;5117681;28;20052;-70
2022/10/06 09:44:02;;;;;;;8.40;1.15;;;15.60;97.30;;;;;;5117401;28;20031;-69
2022/10/06 09:46:30;;;;;;;12.07;1.70;;;15.80;97.50;;;;;;5117852;28;20031;-69
2022/10/06 09:49:16;;;;;;;8.48;1.17;;;16.10;97.40;;;;;;5117695;28;20047;-70
2022/10/06 09:52:11;;;;;;;12.18;1.30;;;16.10;97.00;;;;;;5117461;28;20493;-69
2022/10/06 09:54:40;;;;;;;11.27;1.75;;;15.90;96.90;;;;;;5117430;28;20115;-69
2022/10/06 09:57:22;;;;;;;16.63;1.88;;;15.90;96.60;;;;;;5117625;28;20040;-69
2022/10/06 09:59:48;;;;;;;8.07;1.25;;;15.90;97.10;;;;;;5117645;28;20031;-69
2022/10/06 10:02:39;;;;;;;12.95;1.60;;;16.20;96.90;;;;;;5117488;28;20385;-70
2022/10/06 10:05:27;;;;;;;10.82;1.25;;;16.50;97.10;;;;;;5117463;28;20054;-70
2022/10/06 10:08:11;;;;;;;8.95;1.20;;;16.80;96.90;;;;;;5117887;28;20046;-70
2022/10/06 10:10:37;;;;;;;8.77;1.17;;;17.00;96.80;;;;;;5117091;28;20337;-70
2022/10/06 10:13:23;;;;;;;12.35;1.80;;;17.10;96.30;;;;;;5116958;28;20036;-69
2022/10/06 10:15:59;;;;;;;13.23;1.88;;;17.00;96.00;;;;;;5117427;28;20059;-70
2022/10/06 10:18:27;;;;;;;;;;;17.10;96.20;;;;;;5117909;28;20079;-70
2022/10/06 10:21:05;;;;;;;8.63;1.25;;;17.30;96.00;;;;;;5116995;28;20339;-69
2022/10/06 10:23:32;;;;;;;8.88;1.33;;;17.40;96.00;;;;;;5117274;28;20066;-69
2022/10/06 10:26:30;;;;;;;11.50;1.35;;;17.30;95.70;;;;;;5117275;28;20075;-69
2022/10/06 10:29:29;;;;;;;8.05;1.08;;;16.90;95.70;;;;;;5082916;28;20126;-69
2022/10/06 10:32:01;;;;;;;6.20;1.00;;;16.90;96.00;;;;;;5117193;28;20038;-69
2022/10/06 10:34:37;;;;;;;8.35;1.20;;;17.20;96.30;;;;;;5116919;28;20425;-70
2022/10/06 10:37:28;;;;;;;9.93;1.67;;;17.50;95.40;;;;;;5116986;28;20042;-69
2022/10/06 10:39:57;;;;;;;9.63;1.25;;;17.60;95.00;;;;;;5109679;28;20050;-69
2022/10/06 10:42:48;;;;;;;11.00;1.40;;;17.30;95.10;;;;;;5116626;28;20066;-70
2022/10/06 10:45:21;;;;;;;6.82;0.98;;;17.40;95.20;;;;;;5116778;28;20501;-72
2022/10/06 10:47:48;;;;;;;5.93;0.95;;;17.50;95.00;;;;;;5117148;28;20039;-70
2022/10/06 10:50:38;;;;;;;9.07;1.13;;;17.70;94.80;;;;;;5116677;28;20036;-71
2022/10/06 10:53:21;;;;;;;6.28;0.80;;;17.60;94.50;;;;;;5117050;28;20043;-71
2022/10/06 10:55:49;;;;;;;12.70;1.30;;;17.70;93.90;;;;;;5116680;28;20310;-71
2022/10/06 10:58:40;;;;;;;8.85;1.10;;;17.60;94.00;;;;;;5116969;28;20067;-70
2022/10/06 11:01:26;;;;;;;8.75;0.95;;;17.60;94.30;;;;;;5115942;28;20325;-70
2022/10/06 11:03:55;;;;;;;15.38;1.30;;;17.40;94.40;;;;;;5116807;28;20436;-70
2022/10/06 11:06:59;;;;;;;9.45;1.20;;;17.50;94.60;;;;;;5120848;28;20119;-70
2022/10/06 11:09:30;;;;;;;10.00;0.85;;;17.80;94.80;;;;;;5120513;28;20035;-69
2022/10/06 11:12:14;;;;;;;5.97;1.10;;;18.30;94.60;;;;;;5120834;28;20046;-70
2022/10/06 11:15:04;;;;;;;9.23;1.30;;;18.70;94.50;;;;;;5119968;28;20082;-70
2022/10/06 11:17:46;;;;;;;8.93;0.90;;;18.40;93.90;;;;;;5120727;28;20046;-70
2022/10/06 11:20:37;;;;;;;10.98;1.35;;;18.30;94.00;;;;;;5120645;28;20067;-71
2022/10/06 11:23:21;;;;;;;10.55;1.48;;;18.60;94.40;;;;;;5121046;28;20455;-70
2022/10/06 11:25:49;;;;;;;8.80;1.10;;;18.60;94.80;;;;;;5120538;28;20040;-69
2022/10/06 11:28:23;;;;;;;11.20;1.30;;;18.30;94.60;;;;;;5120436;28;20116;-70
2022/10/06 11:31:00;;;;;;;8.68;1.13;;;18.30;94.80;;;;;;5120111;28;20035;-70
2022/10/06 11:33:35;;;;;;;6.38;1.05;;;18.20;94.50;;;;;;5119096;28;20122;-70
2022/10/06 11:36:02;;;;;;;6.17;0.93;;;18.40;94.40;;;;;;5120358;28;20043;-69
2022/10/06 11:38:40;;;;;;;8.15;0.93;;;18.40;93.70;;;;;;5119281;28;20502;-71
2022/10/06 11:41:22;;;;;;;5.93;1.27;;;18.20;93.70;;;;;;5120267;28;20043;-70
2022/10/06 11:43:52;;;;;;;11.18;1.52;;;18.20;93.70;;;;;;5119430;28;20039;-70
2022/10/06 11:46:41;;;;;;;8.55;0.73;;;18.20;93.80;;;;;;5120096;28;20047;-70
2022/10/06 11:49:28;;;;;;;10.82;0.98;;;18.90;93.80;;;;;;5120091;28;20032;-71
2022/10/06 11:51:54;;;;;;;10.02;1.42;;;18.90;93.90;;;;;;5118718;28;20085;-70
2022/10/06 11:54:38;;;;;;;6.47;0.75;;;19.40;93.70;;;;;;5119927;28;20095;-70
2022/10/06 11:57:22;;;;;;;8.45;1.10;;;19.60;93.60;;;;;;5119869;28;20032;-70
2022/10/06 11:59:54;;;;;;;6.13;0.70;;;19.40;93.10;;;;;;5119779;28;20096;-69
2022/10/06 12:02:39;;;;;;;10.43;0.90;;;19.50;93.90;;;;;;5119490;28;20440;-70
2022/10/06 12:05:12;;;;;;;9.13;1.00;;;19.90;93.70;;;;;;5118465;28;20048;-70
2022/10/06 12:07:55;;;;;;;8.25;1.20;;;20.10;93.10;;;;;;5118639;28;20348;-69
2022/10/06 12:10:27;;;;;;;7.50;1.30;;;20.10;93.30;;;;;;5119672;28;20046;-70
2022/10/06 12:13:14;;;;;;;5.38;0.82;;;20.70;92.50;;;;;;5118732;28;20043;-70
2022/10/06 12:15:43;;;;;;;10.80;0.80;;;20.80;92.90;;;;;;5118178;28;20118;-70
2022/10/06 12:18:35;;;;;;;7.60;0.65;;;20.60;92.60;;;;;;5119445;28;20039;-70
2022/10/06 12:21:09;;;;;;;5.53;0.80;;;20.70;92.30;;;;;;5119194;28;20482;-69
2022/10/06 12:23:38;;;;;;;7.65;0.98;;;20.90;92.30;;;;;;5119375;28;20119;-70
2022/10/06 12:26:24;;;;;;;8.10;0.90;;;21.30;92.40;;;;;;5119041;28;20055;-71
2022/10/06 12:29:00;;;;;;;8.27;0.70;;;21.90;92.30;;;;;;5119302;28;20045;-70
2022/10/06 12:31:42;;;;;;;8.73;1.05;;;20.90;92.20;;;;;;5118999;28;20443;-71
2022/10/06 12:34:40;;;;;;;6.82;0.75;;;20.40;92.10;;;;;;5119191;28;20062;-69
2022/10/06 12:37:31;;;;;;;6.32;0.80;;;19.50;92.70;;;;;;5118755;28;20036;-69
2022/10/06 12:40:36;;;;;;;3.70;0.70;;;19.40;92.70;;;;;;5117802;28;20079;-75
2022/10/06 12:43:16;;;;;;;6.53;0.77;;;19.30;92.60;;;;;;5118041;28;20064;-78
2022/10/06 12:45:59;;;;;;;6.90;0.82;;;19.80;92.50;;;;;;5117952;28;20403;-75
2022/10/06 12:48:40;;;;;;;5.63;0.93;;;19.60;92.70;;;;;;5118628;28;20036;-75
2022/10/06 12:51:16;;;;;;;7.03;0.93;;;19.40;92.90;;;;;;5117813;28;20043;-80
2022/10/06 12:54:19;;;;;;;6.28;0.60;;;19.90;93.00;;;;;;5117528;28;20082;-79
2022/10/06 12:57:15;;;;;;;6.30;0.80;;;19.80;92.50;;;;;;5047261;28;20056;-79
2022/10/06 12:59:41;;;;;;;7.20;0.70;;;19.80;93.00;;;;;;5112396;27;20421;-68
2022/10/06 13:02:40;;;;;;;8.38;1.30;;;19.50;93.10;;;;;;5118622;28;20096;-70
2022/10/06 13:05:11;;;;;;;14.27;2.75;;;19.90;92.70;;;;;;5083978;28;20047;-69
2022/10/06 13:07:58;;;;;;;6.57;0.82;;;19.70;92.30;;;;;;5118776;28;20116;-69
2022/10/06 13:10:25;;;;;;;12.05;1.13;;;19.00;92.60;;;;;;5118172;28;20432;-70
2022/10/06 13:12:51;;;;;;;9.90;1.73;;;18.80;92.80;;;;;;5117093;28;20044;-69
2022/10/06 13:15:29;;;;;;;11.18;1.98;;;19.20;92.50;;;;;;5117946;28;20096;-69
2022/10/06 13:17:54;;;;;;;6.72;1.17;;;19.80;93.00;;;;;;5118359;28;20035;-69
2022/10/06 13:20:39;;;;;;;7.72;1.30;;;20.30;92.60;;;;;;5129019;27;20035;-71